sensor_id;sensor_type;location;lat;lon;timestamp;pressure;altitude;pressure_sealevel;temperature;humidity
44988;BME280;35735;52.226;21.254;2023-08-31T00:02:49;99365.06;;;17.92;100.00
44988;BME280;35735;52.226;21.254;2023-08-31T00:07:50;99371.81;;;17.83;100.00
44988;BME280;35735;52.226;21.254;2023-08-31T00:12:50;99368.41;;;17.78;100.00
44988;BME280;35735;52.226;21.254;2023-08-31T00:17:51;99372.12;;;17.75;100.00
44988;BME280;35735;52.226;21.254;2023-08-31T00:22:52;99377.66;;;17.74;100.00
44988;BME280;35735;52.226;21.254;2023-08-31T00:27:52;99376.06;;;17.70;100.00
44988;BME280;35735;52.226;21.254;2023-08-31T00:32:53;99373.47;;;17.67;100.00
44988;BME280;35735;52.226;21.254;2023-08-31T00:37:55;99353.63;;;17.63;100.00
44988;BME280;35735;52.226;21.254;2023-08-31T00:42:55;99369.94;;;17.65;100.00
44988;BME280;35735;52.226;21.254;2023-08-31T00:47:56;99370.13;;;17.60;100.00
44988;BME280;35735;52.226;21.254;2023-08-31T00:52:56;99372.66;;;17.65;100.00
44988;BME280;35735;52.226;21.254;2023-08-31T00:57:59;99363.78;;;17.59;100.00
44988;BME280;35735;52.226;21.254;2023-08-31T01:03:05;99363.88;;;17.58;100.00
44988;BME280;35735;52.226;21.254;2023-08-31T01:08:33;99368.66;;;17.53;100.00
44988;BME280;35735;52.226;21.254;2023-08-31T01:13:42;99376.03;;;17.51;100.00
44988;BME280;35735;52.226;21.254;2023-08-31T01:18:45;99378.81;;;17.49;100.00
44988;BME280;35735;52.226;21.254;2023-08-31T01:23:54;99382.63;;;17.45;100.00
44988;BME280;35735;52.226;21.254;2023-08-31T01:28:55;99384.41;;;17.46;100.00
44988;BME280;35735;52.226;21.254;2023-08-31T01:33:56;99387.31;;;17.41;100.00
44988;BME280;35735;52.226;21.254;2023-08-31T01:39:46;99390.13;;;17.40;100.00
44988;BME280;35735;52.226;21.254;2023-08-31T01:44:41;99379.22;;;17.40;100.00
44988;BME280;35735;52.226;21.254;2023-08-31T01:49:42;99383.91;;;17.36;100.00
44988;BME280;35735;52.226;21.254;2023-08-31T01:54:42;99377.59;;;17.36;100.00
44988;BME280;35735;52.226;21.254;2023-08-31T01:59:43;99378.78;;;17.29;100.00
44988;BME280;35735;52.226;21.254;2023-08-31T02:04:44;99389.03;;;17.23;100.00
44988;BME280;35735;52.226;21.254;2023-08-31T02:09:44;99379.34;;;17.16;100.00
44988;BME280;35735;52.226;21.254;2023-08-31T02:14:45;99387.78;;;17.10;100.00
44988;BME280;35735;52.226;21.254;2023-08-31T02:19:45;99389.44;;;17.14;100.00
44988;BME280;35735;52.226;21.254;2023-08-31T02:24:46;99390.31;;;17.15;100.00
44988;BME280;35735;52.226;21.254;2023-08-31T02:29:46;99381.38;;;17.11;100.00
44988;BME280;35735;52.226;21.254;2023-08-31T02:34:47;99386.03;;;17.09;100.00
44988;BME280;35735;52.226;21.254;2023-08-31T02:39:47;99389.56;;;17.11;100.00
44988;BME280;35735;52.226;21.254;2023-08-31T02:44:52;99394.91;;;17.14;100.00
44988;BME280;35735;52.226;21.254;2023-08-31T02:49:52;99393.03;;;17.15;100.00
44988;BME280;35735;52.226;21.254;2023-08-31T02:54:53;99391.47;;;17.09;100.00
44988;BME280;35735;52.226;21.254;2023-08-31T02:59:54;99401.59;;;17.06;100.00
44988;BME280;35735;52.226;21.254;2023-08-31T03:04:55;99405.56;;;16.98;100.00
44988;BME280;35735;52.226;21.254;2023-08-31T03:09:55;99411.12;;;16.95;100.00
44988;BME280;35735;52.226;21.254;2023-08-31T03:14:56;99422.16;;;16.92;100.00
44988;BME280;35735;52.226;21.254;2023-08-31T03:19:56;99417.88;;;16.87;100.00
44988;BME280;35735;52.226;21.254;2023-08-31T03:24:57;99427.97;;;16.83;100.00
44988;BME280;35735;52.226;21.254;2023-08-31T03:29:57;99428.84;;;16.83;100.00
44988;BME280;35735;52.226;21.254;2023-08-31T03:34:58;99417.97;;;16.83;100.00
44988;BME280;35735;52.226;21.254;2023-08-31T03:39:59;99418.75;;;16.87;100.00
44988;BME280;35735;52.226;21.254;2023-08-31T03:44:59;99429.63;;;16.87;100.00
44988;BME280;35735;52.226;21.254;2023-08-31T03:50:00;99423.31;;;16.87;100.00
44988;BME280;35735;52.226;21.254;2023-08-31T03:55:00;99424.44;;;16.81;100.00
44988;BME280;35735;52.226;21.254;2023-08-31T04:00:01;99418.12;;;16.79;100.00
44988;BME280;35735;52.226;21.254;2023-08-31T04:05:01;99428.28;;;16.75;100.00
44988;BME280;35735;52.226;21.254;2023-08-31T04:10:03;99431.41;;;16.66;100.00
44988;BME280;35735;52.226;21.254;2023-08-31T04:15:04;99426.25;;;16.58;100.00
44988;BME280;35735;52.226;21.254;2023-08-31T04:20:05;99438.88;;;16.61;100.00
44988;BME280;35735;52.226;21.254;2023-08-31T04:25:06;99434.19;;;16.64;100.00
44988;BME280;35735;52.226;21.254;2023-08-31T04:30:07;99431.28;;;16.69;100.00
44988;BME280;35735;52.226;21.254;2023-08-31T04:35:08;99433.03;;;16.70;100.00
44988;BME280;35735;52.226;21.254;2023-08-31T04:40:09;99438.38;;;16.73;100.00
44988;BME280;35735;52.226;21.254;2023-08-31T04:45:10;99434.69;;;16.74;100.00
44988;BME280;35735;52.226;21.254;2023-08-31T04:50:10;99442.88;;;16.74;100.00
44988;BME280;35735;52.226;21.254;2023-08-31T04:55:12;99443.75;;;16.75;100.00
44988;BME280;35735;52.226;21.254;2023-08-31T05:00:13;99454.34;;;16.82;100.00
44988;BME280;35735;52.226;21.254;2023-08-31T05:05:14;99459.91;;;16.79;100.00
44988;BME280;35735;52.226;21.254;2023-08-31T05:10:15;99479.81;;;16.81;100.00
44988;BME280;35735;52.226;21.254;2023-08-31T05:15:15;99486.47;;;16.74;100.00
44988;BME280;35735;52.226;21.254;2023-08-31T05:20:16;99482.84;;;16.74;100.00
44988;BME280;35735;52.226;21.254;2023-08-31T05:25:17;99493.50;;;16.80;100.00
44988;BME280;35735;52.226;21.254;2023-08-31T05:30:17;99487.84;;;16.86;100.00
44988;BME280;35735;52.226;21.254;2023-08-31T05:35:18;99486.44;;;16.98;100.00
44988;BME280;35735;52.226;21.254;2023-08-31T05:40:18;99492.78;;;16.98;100.00
44988;BME280;35735;52.226;21.254;2023-08-31T05:45:19;99494.50;;;17.01;100.00
44988;BME280;35735;52.226;21.254;2023-08-31T05:50:20;99490.50;;;17.10;100.00
44988;BME280;35735;52.226;21.254;2023-08-31T05:55:20;99493.16;;;17.11;100.00
44988;BME280;35735;52.226;21.254;2023-08-31T06:00:21;99493.41;;;17.05;100.00
44988;BME280;35735;52.226;21.254;2023-08-31T06:05:21;99507.84;;;17.07;100.00
44988;BME280;35735;52.226;21.254;2023-08-31T06:10:22;99514.09;;;17.11;100.00
44988;BME280;35735;52.226;21.254;2023-08-31T06:15:22;99511.28;;;17.12;100.00
44988;BME280;35735;52.226;21.254;2023-08-31T06:20:23;99517.47;;;17.17;100.00
44988;BME280;35735;52.226;21.254;2023-08-31T06:25:24;99523.91;;;17.15;100.00
44988;BME280;35735;52.226;21.254;2023-08-31T06:30:24;99545.66;;;17.16;100.00
44988;BME280;35735;52.226;21.254;2023-08-31T06:35:25;99533.94;;;17.14;100.00
44988;BME280;35735;52.226;21.254;2023-08-31T06:40:25;99531.84;;;17.21;100.00
44988;BME280;35735;52.226;21.254;2023-08-31T06:45:26;99530.94;;;17.20;100.00
44988;BME280;35735;52.226;21.254;2023-08-31T06:50:26;99543.75;;;17.40;100.00
44988;BME280;35735;52.226;21.254;2023-08-31T06:55:27;99548.28;;;17.62;100.00
44988;BME280;35735;52.226;21.254;2023-08-31T07:00:28;99554.38;;;17.91;100.00
44988;BME280;35735;52.226;21.254;2023-08-31T07:05:33;99548.28;;;18.25;100.00
44988;BME280;35735;52.226;21.254;2023-08-31T07:10:34;99555.00;;;18.58;100.00
44988;BME280;35735;52.226;21.254;2023-08-31T07:15:35;99569.34;;;18.82;100.00
44988;BME280;35735;52.226;21.254;2023-08-31T07:20:36;99568.84;;;18.93;100.00
44988;BME280;35735;52.226;21.254;2023-08-31T07:25:36;99579.50;;;18.99;100.00
44988;BME280;35735;52.226;21.254;2023-08-31T07:30:37;99579.13;;;19.06;100.00
44988;BME280;35735;52.226;21.254;2023-08-31T07:35:38;99568.66;;;19.16;100.00
44988;BME280;35735;52.226;21.254;2023-08-31T07:40:38;99573.34;;;19.32;100.00
44988;BME280;35735;52.226;21.254;2023-08-31T07:45:39;99579.91;;;19.47;100.00
44988;BME280;35735;52.226;21.254;2023-08-31T07:50:43;99576.53;;;19.59;100.00
44988;BME280;35735;52.226;21.254;2023-08-31T07:55:53;99589.34;;;19.58;100.00
44988;BME280;35735;52.226;21.254;2023-08-31T08:00:55;99599.50;;;19.74;100.00
44988;BME280;35735;52.226;21.254;2023-08-31T08:05:56;99595.13;;;19.89;100.00
44988;BME280;35735;52.226;21.254;2023-08-31T08:10:56;99591.59;;;20.22;100.00
44988;BME280;35735;52.226;21.254;2023-08-31T08:15:57;99596.22;;;20.54;100.00
44988;BME280;35735;52.226;21.254;2023-08-31T08:20:57;99596.87;;;20.77;100.00
44988;BME280;35735;52.226;21.254;2023-08-31T08:25:58;99615.41;;;21.05;100.00
44988;BME280;35735;52.226;21.254;2023-08-31T08:31:01;99610.84;;;21.22;100.00
44988;BME280;35735;52.226;21.254;2023-08-31T08:36:03;99621.09;;;21.34;100.00
44988;BME280;35735;52.226;21.254;2023-08-31T08:41:04;99624.12;;;21.45;100.00
44988;BME280;35735;52.226;21.254;2023-08-31T08:46:05;99635.28;;;21.58;100.00
44988;BME280;35735;52.226;21.254;2023-08-31T08:51:07;99637.25;;;21.56;100.00
44988;BME280;35735;52.226;21.254;2023-08-31T08:56:08;99637.78;;;21.47;100.00
44988;BME280;35735;52.226;21.254;2023-08-31T09:01:08;99636.84;;;21.46;100.00
44988;BME280;35735;52.226;21.254;2023-08-31T09:06:09;99631.31;;;21.64;100.00
44988;BME280;35735;52.226;21.254;2023-08-31T09:11:19;99622.00;;;21.82;100.00
44988;BME280;35735;52.226;21.254;2023-08-31T09:16:28;99633.16;;;21.95;100.00
44988;BME280;35735;52.226;21.254;2023-08-31T09:21:36;99631.97;;;21.99;100.00
44988;BME280;35735;52.226;21.254;2023-08-31T09:26:38;99639.88;;;22.20;100.00
44988;BME280;35735;52.226;21.254;2023-08-31T09:31:45;99646.34;;;22.35;100.00
44988;BME280;35735;52.226;21.254;2023-08-31T09:36:45;99643.37;;;22.68;100.00
44988;BME280;35735;52.226;21.254;2023-08-31T09:41:55;99652.84;;;22.93;100.00
44988;BME280;35735;52.226;21.254;2023-08-31T09:46:56;99648.94;;;23.11;99.54
44988;BME280;35735;52.226;21.254;2023-08-31T09:52:00;99657.00;;;23.29;98.82
44988;BME280;35735;52.226;21.254;2023-08-31T09:57:04;99672.53;;;23.30;97.05
44988;BME280;35735;52.226;21.254;2023-08-31T10:02:06;99671.06;;;23.24;97.20
44988;BME280;35735;52.226;21.254;2023-08-31T10:07:09;99674.88;;;23.22;95.77
44988;BME280;35735;52.226;21.254;2023-08-31T10:12:11;99684.53;;;23.15;96.78
44988;BME280;35735;52.226;21.254;2023-08-31T10:17:12;99692.00;;;23.12;96.18
44988;BME280;35735;52.226;21.254;2023-08-31T10:22:13;99691.00;;;23.13;95.75
44988;BME280;35735;52.226;21.254;2023-08-31T10:27:18;99688.84;;;23.33;95.05
44988;BME280;35735;52.226;21.254;2023-08-31T10:32:19;99688.31;;;23.55;94.86
44988;BME280;35735;52.226;21.254;2023-08-31T10:37:20;99690.19;;;23.69;93.81
44988;BME280;35735;52.226;21.254;2023-08-31T10:42:23;99685.28;;;23.60;93.48
44988;BME280;35735;52.226;21.254;2023-08-31T10:47:37;99685.28;;;23.60;93.02
44988;BME280;35735;52.226;21.254;2023-08-31T10:52:44;99696.00;;;23.50;92.22
44988;BME280;35735;52.226;21.254;2023-08-31T10:57:44;99698.97;;;23.33;93.08
44988;BME280;35735;52.226;21.254;2023-08-31T11:02:46;99704.88;;;23.26;93.17
44988;BME280;35735;52.226;21.254;2023-08-31T11:07:48;99700.66;;;23.21;93.39
44988;BME280;35735;52.226;21.254;2023-08-31T11:12:51;99703.97;;;23.11;92.96
44988;BME280;35735;52.226;21.254;2023-08-31T11:17:53;99700.53;;;23.08;93.14
44988;BME280;35735;52.226;21.254;2023-08-31T11:22:54;99703.97;;;23.11;93.54
44988;BME280;35735;52.226;21.254;2023-08-31T11:27:56;99701.81;;;23.17;93.72
44988;BME280;35735;52.226;21.254;2023-08-31T11:33:03;99709.19;;;23.16;93.42
44988;BME280;35735;52.226;21.254;2023-08-31T11:38:05;99700.34;;;23.11;93.34
44988;BME280;35735;52.226;21.254;2023-08-31T11:43:06;99696.91;;;23.07;92.20
44988;BME280;35735;52.226;21.254;2023-08-31T11:48:07;99706.53;;;23.15;93.40
44988;BME280;35735;52.226;21.254;2023-08-31T11:53:08;99705.66;;;23.28;92.92
44988;BME280;35735;52.226;21.254;2023-08-31T11:58:09;99707.91;;;23.22;91.91
44988;BME280;35735;52.226;21.254;2023-08-31T12:03:10;99714.31;;;23.22;91.62
44988;BME280;35735;52.226;21.254;2023-08-31T12:08:10;99709.31;;;23.29;91.93
44988;BME280;35735;52.226;21.254;2023-08-31T12:13:11;99707.53;;;23.42;91.78
44988;BME280;35735;52.226;21.254;2023-08-31T12:18:13;99705.66;;;23.43;90.45
44988;BME280;35735;52.226;21.254;2023-08-31T12:23:14;99696.72;;;23.39;89.60
44988;BME280;35735;52.226;21.254;2023-08-31T12:28:15;99697.31;;;23.44;90.87
44988;BME280;35735;52.226;21.254;2023-08-31T12:33:18;99685.91;;;23.51;90.38
44988;BME280;35735;52.226;21.254;2023-08-31T12:38:18;99692.19;;;23.53;89.89
44988;BME280;35735;52.226;21.254;2023-08-31T12:43:19;99687.84;;;23.48;90.11
44988;BME280;35735;52.226;21.254;2023-08-31T12:48:20;99680.59;;;23.47;89.30
44988;BME280;35735;52.226;21.254;2023-08-31T12:53:22;99677.31;;;23.55;90.06
44988;BME280;35735;52.226;21.254;2023-08-31T12:58:22;99681.34;;;23.64;89.61
44988;BME280;35735;52.226;21.254;2023-08-31T13:03:23;99679.16;;;23.69;89.21
44988;BME280;35735;52.226;21.254;2023-08-31T13:08:23;99670.53;;;23.61;88.39
44988;BME280;35735;52.226;21.254;2023-08-31T13:13:24;99672.06;;;23.65;88.63
44988;BME280;35735;52.226;21.254;2023-08-31T13:18:24;99667.97;;;23.58;88.83
44988;BME280;35735;52.226;21.254;2023-08-31T13:23:25;99673.09;;;23.49;89.15
44988;BME280;35735;52.226;21.254;2023-08-31T13:28:26;99658.69;;;23.59;89.49
44988;BME280;35735;52.226;21.254;2023-08-31T13:33:27;99669.84;;;23.57;88.68
44988;BME280;35735;52.226;21.254;2023-08-31T13:38:27;99679.97;;;23.57;88.68
44988;BME280;35735;52.226;21.254;2023-08-31T13:43:28;99664.94;;;23.48;88.32
44988;BME280;35735;52.226;21.254;2023-08-31T13:48:29;99666.22;;;23.42;88.40
44988;BME280;35735;52.226;21.254;2023-08-31T13:53:30;99686.88;;;23.35;89.14
44988;BME280;35735;52.226;21.254;2023-08-31T13:58:30;99679.22;;;23.26;88.84
44988;BME280;35735;52.226;21.254;2023-08-31T14:03:31;99686.31;;;23.16;89.31
44988;BME280;35735;52.226;21.254;2023-08-31T14:08:31;99681.19;;;23.09;89.47
44988;BME280;35735;52.226;21.254;2023-08-31T14:13:32;99686.16;;;23.03;89.59
44988;BME280;35735;52.226;21.254;2023-08-31T14:18:32;99683.69;;;22.98;89.21
44988;BME280;35735;52.226;21.254;2023-08-31T14:23:33;99689.19;;;22.98;89.67
44988;BME280;35735;52.226;21.254;2023-08-31T14:28:34;99693.81;;;22.98;89.21
44988;BME280;35735;52.226;21.254;2023-08-31T14:33:34;99710.81;;;22.90;89.16
44988;BME280;35735;52.226;21.254;2023-08-31T14:38:35;99754.09;;;22.72;89.32
44988;BME280;35735;52.226;21.254;2023-08-31T14:43:35;99762.25;;;22.27;91.16
44988;BME280;35735;52.226;21.254;2023-08-31T14:48:36;99768.69;;;21.78;93.02
44988;BME280;35735;52.226;21.254;2023-08-31T14:53:36;99766.66;;;21.50;93.90
44988;BME280;35735;52.226;21.254;2023-08-31T14:58:37;99798.00;;;21.28;95.41
44988;BME280;35735;52.226;21.254;2023-08-31T15:03:37;99799.31;;;21.04;95.78
44988;BME280;35735;52.226;21.254;2023-08-31T15:08:39;99804.47;;;20.75;96.54
44988;BME280;35735;52.226;21.254;2023-08-31T15:13:40;99801.16;;;20.32;97.15
44988;BME280;35735;52.226;21.254;2023-08-31T15:18:41;99817.47;;;19.97;99.46
44988;BME280;35735;52.226;21.254;2023-08-31T15:23:41;99802.47;;;19.66;100.00
44988;BME280;35735;52.226;21.254;2023-08-31T15:28:42;99789.41;;;19.33;100.00
44988;BME280;35735;52.226;21.254;2023-08-31T15:33:43;99786.56;;;19.16;100.00
44988;BME280;35735;52.226;21.254;2023-08-31T15:38:44;99782.34;;;19.09;100.00
44988;BME280;35735;52.226;21.254;2023-08-31T15:43:45;99799.75;;;19.06;100.00
44988;BME280;35735;52.226;21.254;2023-08-31T15:48:45;99804.72;;;18.98;100.00
44988;BME280;35735;52.226;21.254;2023-08-31T15:53:47;99802.16;;;18.93;100.00
44988;BME280;35735;52.226;21.254;2023-08-31T15:58:47;99804.22;;;18.88;100.00
44988;BME280;35735;52.226;21.254;2023-08-31T16:03:48;99819.06;;;18.81;100.00
44988;BME280;35735;52.226;21.254;2023-08-31T16:08:48;99813.75;;;18.78;100.00
44988;BME280;35735;52.226;21.254;2023-08-31T16:13:49;99801.03;;;18.77;100.00
44988;BME280;35735;52.226;21.254;2023-08-31T16:18:50;99812.34;;;18.67;100.00
44988;BME280;35735;52.226;21.254;2023-08-31T16:23:50;99824.25;;;18.66;100.00
44988;BME280;35735;52.226;21.254;2023-08-31T16:28:51;99823.56;;;18.61;100.00
44988;BME280;35735;52.226;21.254;2023-08-31T16:33:51;99819.09;;;18.59;100.00
44988;BME280;35735;52.226;21.254;2023-08-31T16:38:52;99821.78;;;18.60;100.00
44988;BME280;35735;52.226;21.254;2023-08-31T16:43:52;99819.16;;;18.57;100.00
44988;BME280;35735;52.226;21.254;2023-08-31T16:48:53;99818.22;;;18.58;100.00
44988;BME280;35735;52.226;21.254;2023-08-31T16:53:53;99814.81;;;18.53;100.00
44988;BME280;35735;52.226;21.254;2023-08-31T16:58:54;99824.91;;;18.51;100.00
44988;BME280;35735;52.226;21.254;2023-08-31T17:03:55;99833.25;;;18.48;100.00
44988;BME280;35735;52.226;21.254;2023-08-31T17:08:55;99846.97;;;18.46;100.00
44988;BME280;35735;52.226;21.254;2023-08-31T17:13:56;99849.63;;;18.48;100.00
44988;BME280;35735;52.226;21.254;2023-08-31T17:18:56;99858.66;;;18.50;100.00
44988;BME280;35735;52.226;21.254;2023-08-31T17:23:57;99861.25;;;18.53;100.00
44988;BME280;35735;52.226;21.254;2023-08-31T17:28:58;99874.91;;;18.53;100.00
44988;BME280;35735;52.226;21.254;2023-08-31T17:33:58;99878.72;;;18.49;100.00
44988;BME280;35735;52.226;21.254;2023-08-31T17:38:59;99882.03;;;18.35;100.00
44988;BME280;35735;52.226;21.254;2023-08-31T17:43:59;99887.09;;;18.22;100.00
44988;BME280;35735;52.226;21.254;2023-08-31T17:49:00;99888.41;;;18.12;100.00
44988;BME280;35735;52.226;21.254;2023-08-31T17:54:01;99890.66;;;18.01;100.00
44988;BME280;35735;52.226;21.254;2023-08-31T17:59:02;99897.84;;;18.03;100.00
44988;BME280;35735;52.226;21.254;2023-08-31T18:04:03;99905.88;;;18.08;100.00
44988;BME280;35735;52.226;21.254;2023-08-31T18:09:03;99916.03;;;18.04;100.00
44988;BME280;35735;52.226;21.254;2023-08-31T18:14:04;99928.78;;;18.04;100.00
44988;BME280;35735;52.226;21.254;2023-08-31T18:19:06;99924.63;;;17.93;100.00
44988;BME280;35735;52.226;21.254;2023-08-31T18:24:06;99928.97;;;17.74;100.00
44988;BME280;35735;52.226;21.254;2023-08-31T18:29:07;99935.44;;;17.71;100.00
44988;BME280;35735;52.226;21.254;2023-08-31T18:34:08;99944.25;;;17.54;100.00
44988;BME280;35735;52.226;21.254;2023-08-31T18:39:08;99946.56;;;17.40;100.00
44988;BME280;35735;52.226;21.254;2023-08-31T18:44:09;99959.69;;;17.29;100.00
44988;BME280;35735;52.226;21.254;2023-08-31T18:49:09;99954.56;;;17.19;100.00
44988;BME280;35735;52.226;21.254;2023-08-31T18:54:10;99956.66;;;17.11;100.00
44988;BME280;35735;52.226;21.254;2023-08-31T18:59:11;99958.97;;;16.97;100.00
44988;BME280;35735;52.226;21.254;2023-08-31T19:04:11;99963.81;;;16.87;100.00
44988;BME280;35735;52.226;21.254;2023-08-31T19:09:12;99970.31;;;16.83;100.00
44988;BME280;35735;52.226;21.254;2023-08-31T19:14:12;99965.09;;;16.75;100.00
44988;BME280;35735;52.226;21.254;2023-08-31T19:19:13;99961.94;;;16.61;100.00
44988;BME280;35735;52.226;21.254;2023-08-31T19:24:13;99964.28;;;16.43;100.00
44988;BME280;35735;52.226;21.254;2023-08-31T19:29:14;99962.00;;;16.29;100.00
44988;BME280;35735;52.226;21.254;2023-08-31T19:34:14;99969.25;;;16.30;100.00
44988;BME280;35735;52.226;21.254;2023-08-31T19:39:15;99974.03;;;16.22;100.00
44988;BME280;35735;52.226;21.254;2023-08-31T19:44:16;99979.03;;;16.06;100.00
44988;BME280;35735;52.226;21.254;2023-08-31T19:49:16;99963.13;;;15.92;100.00
44988;BME280;35735;52.226;21.254;2023-08-31T19:54:17;99967.12;;;15.79;100.00
44988;BME280;35735;52.226;21.254;2023-08-31T19:59:17;99993.59;;;15.72;100.00
44988;BME280;35735;52.226;21.254;2023-08-31T20:04:18;99990.12;;;15.67;100.00
44988;BME280;35735;52.226;21.254;2023-08-31T20:09:18;99997.50;;;15.62;100.00
44988;BME280;35735;52.226;21.254;2023-08-31T20:14:19;100005.69;;;15.62;100.00
44988;BME280;35735;52.226;21.254;2023-08-31T20:19:19;100013.16;;;15.54;100.00
44988;BME280;35735;52.226;21.254;2023-08-31T20:24:20;100020.50;;;15.50;100.00
44988;BME280;35735;52.226;21.254;2023-08-31T20:29:20;100021.47;;;15.48;100.00
44988;BME280;35735;52.226;21.254;2023-08-31T20:34:21;100025.00;;;15.51;100.00
44988;BME280;35735;52.226;21.254;2023-08-31T20:39:22;100029.66;;;15.46;100.00
44988;BME280;35735;52.226;21.254;2023-08-31T20:44:23;100037.00;;;15.43;100.00
44988;BME280;35735;52.226;21.254;2023-08-31T20:49:29;100029.69;;;15.45;100.00
44988;BME280;35735;52.226;21.254;2023-08-31T20:54:30;100025.09;;;15.47;100.00
44988;BME280;35735;52.226;21.254;2023-08-31T20:59:31;100035.34;;;15.37;100.00
44988;BME280;35735;52.226;21.254;2023-08-31T21:04:31;100038.19;;;15.32;100.00
44988;BME280;35735;52.226;21.254;2023-08-31T21:09:32;100040.97;;;15.29;100.00
44988;BME280;35735;52.226;21.254;2023-08-31T21:14:32;100043.09;;;15.16;100.00
44988;BME280;35735;52.226;21.254;2023-08-31T21:19:33;100044.16;;;15.11;100.00
44988;BME280;35735;52.226;21.254;2023-08-31T21:24:34;100050.66;;;15.05;100.00
44988;BME280;35735;52.226;21.254;2023-08-31T21:29:34;100055.34;;;14.98;100.00
44988;BME280;35735;52.226;21.254;2023-08-31T21:34:35;100051.91;;;14.90;100.00
44988;BME280;35735;52.226;21.254;2023-08-31T21:39:35;100052.12;;;14.81;100.00
44988;BME280;35735;52.226;21.254;2023-08-31T21:44:36;100059.59;;;14.70;100.00
44988;BME280;35735;52.226;21.254;2023-08-31T21:49:36;100052.59;;;14.59;100.00
44988;BME280;35735;52.226;21.254;2023-08-31T21:54:37;100065.34;;;14.54;100.00
44988;BME280;35735;52.226;21.254;2023-08-31T21:59:37;100070.00;;;14.49;100.00
44988;BME280;35735;52.226;21.254;2023-08-31T22:04:38;100078.22;;;14.46;100.00
44988;BME280;35735;52.226;21.254;2023-08-31T22:09:38;100080.97;;;14.43;100.00
44988;BME280;35735;52.226;21.254;2023-08-31T22:14:39;100080.19;;;14.38;100.00
44988;BME280;35735;52.226;21.254;2023-08-31T22:19:40;100085.78;;;14.32;100.00
44988;BME280;35735;52.226;21.254;2023-08-31T22:24:40;100089.66;;;14.18;100.00
44988;BME280;35735;52.226;21.254;2023-08-31T22:29:41;100090.50;;;14.20;100.00
44988;BME280;35735;52.226;21.254;2023-08-31T22:34:41;100096.84;;;14.19;100.00
44988;BME280;35735;52.226;21.254;2023-08-31T22:39:42;100089.53;;;14.23;100.00
44988;BME280;35735;52.226;21.254;2023-08-31T22:44:42;100099.47;;;14.24;100.00
44988;BME280;35735;52.226;21.254;2023-08-31T22:49:44;100089.66;;;14.18;100.00
44988;BME280;35735;52.226;21.254;2023-08-31T22:54:44;100092.47;;;14.14;100.00
44988;BME280;35735;52.226;21.254;2023-08-31T22:59:45;100095.38;;;14.03;100.00
44988;BME280;35735;52.226;21.254;2023-08-31T23:04:46;100097.41;;;13.92;100.00
44988;BME280;35735;52.226;21.254;2023-08-31T23:09:46;100104.84;;;13.80;100.00
44988;BME280;35735;52.226;21.254;2023-08-31T23:14:47;100106.84;;;13.69;100.00
44988;BME280;35735;52.226;21.254;2023-08-31T23:19:47;100106.06;;;13.62;100.00
44988;BME280;35735;52.226;21.254;2023-08-31T23:24:48;100109.88;;;13.52;100.00
44988;BME280;35735;52.226;21.254;2023-08-31T23:29:48;100109.06;;;13.45;100.00
44988;BME280;35735;52.226;21.254;2023-08-31T23:34:49;100112.91;;;13.30;100.00
44988;BME280;35735;52.226;21.254;2023-08-31T23:39:50;100132.06;;;13.18;100.00
44988;BME280;35735;52.226;21.254;2023-08-31T23:44:50;100124.94;;;13.11;100.00
44988;BME280;35735;52.226;21.254;2023-08-31T23:49:51;100131.28;;;13.11;100.00
44988;BME280;35735;52.226;21.254;2023-08-31T23:54:51;100131.28;;;13.11;100.00
44988;BME280;35735;52.226;21.254;2023-08-31T23:59:52;100131.16;;;13.18;100.00
